sensor_id;sensor_type;location;lat;lon;timestamp;temperature;humidity
40253;DHT22;25972;51.854;4.534;2023-04-25T00:02:07;6.60;99.90
40253;DHT22;25972;51.854;4.534;2023-04-25T00:04:34;6.60;99.90
40253;DHT22;25972;51.854;4.534;2023-04-25T00:07:00;6.60;99.90
40253;DHT22;25972;51.854;4.534;2023-04-25T00:09:29;6.60;99.90
40253;DHT22;25972;51.854;4.534;2023-04-25T00:11:55;6.70;99.90
40253;DHT22;25972;51.854;4.534;2023-04-25T00:14:21;6.70;99.90
40253;DHT22;25972;51.854;4.534;2023-04-25T00:16:47;6.80;99.90
40253;DHT22;25972;51.854;4.534;2023-04-25T00:19:13;6.80;99.90
40253;DHT22;25972;51.854;4.534;2023-04-25T00:21:39;6.80;99.90
40253;DHT22;25972;51.854;4.534;2023-04-25T00:24:08;6.80;99.90
40253;DHT22;25972;51.854;4.534;2023-04-25T00:26:35;6.70;99.90
40253;DHT22;25972;51.854;4.534;2023-04-25T00:29:01;6.80;99.90
40253;DHT22;25972;51.854;4.534;2023-04-25T00:31:27;6.70;99.90
40253;DHT22;25972;51.854;4.534;2023-04-25T00:33:54;6.70;99.90
40253;DHT22;25972;51.854;4.534;2023-04-25T00:36:20;6.60;99.90
40253;DHT22;25972;51.854;4.534;2023-04-25T00:38:47;6.60;99.90
40253;DHT22;25972;51.854;4.534;2023-04-25T00:41:12;6.50;99.90
40253;DHT22;25972;51.854;4.534;2023-04-25T00:43:39;6.50;99.90
40253;DHT22;25972;51.854;4.534;2023-04-25T00:46:05;6.50;99.90
40253;DHT22;25972;51.854;4.534;2023-04-25T00:48:31;6.40;99.90
40253;DHT22;25972;51.854;4.534;2023-04-25T00:50:58;6.30;99.90
40253;DHT22;25972;51.854;4.534;2023-04-25T00:53:26;6.30;99.90
40253;DHT22;25972;51.854;4.534;2023-04-25T00:55:52;6.30;99.90
40253;DHT22;25972;51.854;4.534;2023-04-25T00:58:20;6.20;99.90
40253;DHT22;25972;51.854;4.534;2023-04-25T01:00:47;6.20;99.90
40253;DHT22;25972;51.854;4.534;2023-04-25T01:03:14;6.20;99.90
40253;DHT22;25972;51.854;4.534;2023-04-25T01:05:42;6.10;99.90
40253;DHT22;25972;51.854;4.534;2023-04-25T01:08:08;6.10;99.90
40253;DHT22;25972;51.854;4.534;2023-04-25T01:10:36;6.10;99.90
40253;DHT22;25972;51.854;4.534;2023-04-25T01:13:02;6.10;99.90
40253;DHT22;25972;51.854;4.534;2023-04-25T01:15:28;6.20;99.90
40253;DHT22;25972;51.854;4.534;2023-04-25T01:17:55;6.20;99.90
40253;DHT22;25972;51.854;4.534;2023-04-25T01:20:22;6.20;99.90
40253;DHT22;25972;51.854;4.534;2023-04-25T01:22:52;6.20;99.90
40253;DHT22;25972;51.854;4.534;2023-04-25T01:25:20;6.30;99.90
40253;DHT22;25972;51.854;4.534;2023-04-25T01:27:46;6.30;99.90
40253;DHT22;25972;51.854;4.534;2023-04-25T01:30:13;6.30;99.90
40253;DHT22;25972;51.854;4.534;2023-04-25T01:32:41;6.40;99.90
40253;DHT22;25972;51.854;4.534;2023-04-25T01:35:09;6.40;99.90
40253;DHT22;25972;51.854;4.534;2023-04-25T01:37:43;6.40;99.90
40253;DHT22;25972;51.854;4.534;2023-04-25T01:40:12;6.40;99.90
40253;DHT22;25972;51.854;4.534;2023-04-25T01:42:41;6.50;99.90
40253;DHT22;25972;51.854;4.534;2023-04-25T01:45:08;6.50;99.90
40253;DHT22;25972;51.854;4.534;2023-04-25T01:47:34;6.60;99.90
40253;DHT22;25972;51.854;4.534;2023-04-25T01:50:04;6.60;99.90
40253;DHT22;25972;51.854;4.534;2023-04-25T01:52:31;6.60;99.90
40253;DHT22;25972;51.854;4.534;2023-04-25T01:54:59;6.60;99.90
40253;DHT22;25972;51.854;4.534;2023-04-25T01:57:27;6.60;99.90
40253;DHT22;25972;51.854;4.534;2023-04-25T02:00:02;6.60;99.90
40253;DHT22;25972;51.854;4.534;2023-04-25T02:02:40;6.60;99.90
40253;DHT22;25972;51.854;4.534;2023-04-25T02:05:34;6.60;99.90
40253;DHT22;25972;51.854;4.534;2023-04-25T02:08:02;6.60;99.90
40253;DHT22;25972;51.854;4.534;2023-04-25T02:10:27;6.60;99.90
40253;DHT22;25972;51.854;4.534;2023-04-25T02:13:03;6.60;99.90
40253;DHT22;25972;51.854;4.534;2023-04-25T02:15:45;6.60;99.90
40253;DHT22;25972;51.854;4.534;2023-04-25T02:18:15;6.60;99.90
40253;DHT22;25972;51.854;4.534;2023-04-25T02:20:44;6.60;99.90
40253;DHT22;25972;51.854;4.534;2023-04-25T02:23:11;6.60;99.90
40253;DHT22;25972;51.854;4.534;2023-04-25T02:25:38;6.50;99.90
40253;DHT22;25972;51.854;4.534;2023-04-25T02:28:03;6.60;99.90
40253;DHT22;25972;51.854;4.534;2023-04-25T02:30:29;6.50;99.90
40253;DHT22;25972;51.854;4.534;2023-04-25T02:32:55;6.60;99.90
40253;DHT22;25972;51.854;4.534;2023-04-25T02:35:22;6.50;99.90
40253;DHT22;25972;51.854;4.534;2023-04-25T02:37:47;6.50;99.90
40253;DHT22;25972;51.854;4.534;2023-04-25T02:40:13;6.50;99.90
40253;DHT22;25972;51.854;4.534;2023-04-25T02:42:39;6.50;99.90
40253;DHT22;25972;51.854;4.534;2023-04-25T02:45:05;6.60;99.90
40253;DHT22;25972;51.854;4.534;2023-04-25T02:47:31;6.60;99.90
40253;DHT22;25972;51.854;4.534;2023-04-25T02:49:57;6.60;99.90
40253;DHT22;25972;51.854;4.534;2023-04-25T02:52:23;6.60;99.90
40253;DHT22;25972;51.854;4.534;2023-04-25T02:54:56;6.60;99.90
40253;DHT22;25972;51.854;4.534;2023-04-25T02:57:22;6.60;99.90
40253;DHT22;25972;51.854;4.534;2023-04-25T02:59:48;6.60;99.90
40253;DHT22;25972;51.854;4.534;2023-04-25T03:02:14;6.50;99.90
40253;DHT22;25972;51.854;4.534;2023-04-25T03:04:40;6.40;99.90
40253;DHT22;25972;51.854;4.534;2023-04-25T03:07:06;6.40;99.90
40253;DHT22;25972;51.854;4.534;2023-04-25T03:09:31;6.30;99.90
40253;DHT22;25972;51.854;4.534;2023-04-25T03:11:58;6.20;99.90
40253;DHT22;25972;51.854;4.534;2023-04-25T03:14:23;6.20;99.90
40253;DHT22;25972;51.854;4.534;2023-04-25T03:16:50;6.10;99.90
40253;DHT22;25972;51.854;4.534;2023-04-25T03:19:16;6.10;99.90
40253;DHT22;25972;51.854;4.534;2023-04-25T03:21:43;6.00;99.90
40253;DHT22;25972;51.854;4.534;2023-04-25T03:24:09;6.00;99.90
40253;DHT22;25972;51.854;4.534;2023-04-25T03:26:36;6.10;99.90
40253;DHT22;25972;51.854;4.534;2023-04-25T03:29:02;6.10;99.90
40253;DHT22;25972;51.854;4.534;2023-04-25T03:31:28;6.00;99.90
40253;DHT22;25972;51.854;4.534;2023-04-25T03:33:54;6.10;99.90
40253;DHT22;25972;51.854;4.534;2023-04-25T03:36:21;6.10;99.90
40253;DHT22;25972;51.854;4.534;2023-04-25T03:38:47;6.10;99.90
40253;DHT22;25972;51.854;4.534;2023-04-25T03:41:15;6.10;99.90
40253;DHT22;25972;51.854;4.534;2023-04-25T03:43:48;6.10;99.90
40253;DHT22;25972;51.854;4.534;2023-04-25T03:46:15;6.10;99.90
40253;DHT22;25972;51.854;4.534;2023-04-25T03:48:41;6.10;99.90
40253;DHT22;25972;51.854;4.534;2023-04-25T03:51:10;6.10;99.90
40253;DHT22;25972;51.854;4.534;2023-04-25T03:53:39;6.10;99.90
40253;DHT22;25972;51.854;4.534;2023-04-25T03:56:37;6.10;99.90
40253;DHT22;25972;51.854;4.534;2023-04-25T03:59:13;6.10;99.90
40253;DHT22;25972;51.854;4.534;2023-04-25T04:01:39;6.10;99.90
40253;DHT22;25972;51.854;4.534;2023-04-25T04:04:05;6.20;99.90
40253;DHT22;25972;51.854;4.534;2023-04-25T04:06:31;6.10;99.90
40253;DHT22;25972;51.854;4.534;2023-04-25T04:09:05;6.10;99.90
40253;DHT22;25972;51.854;4.534;2023-04-25T04:11:39;6.20;99.90
40253;DHT22;25972;51.854;4.534;2023-04-25T04:14:06;6.20;99.90
40253;DHT22;25972;51.854;4.534;2023-04-25T04:16:33;6.10;99.90
40253;DHT22;25972;51.854;4.534;2023-04-25T04:18:59;6.20;99.90
40253;DHT22;25972;51.854;4.534;2023-04-25T04:21:25;6.20;99.90
40253;DHT22;25972;51.854;4.534;2023-04-25T04:23:53;6.20;99.90
40253;DHT22;25972;51.854;4.534;2023-04-25T04:26:21;6.20;99.90
40253;DHT22;25972;51.854;4.534;2023-04-25T04:29:05;6.20;99.90
40253;DHT22;25972;51.854;4.534;2023-04-25T04:31:51;6.30;99.90
40253;DHT22;25972;51.854;4.534;2023-04-25T04:34:18;6.30;99.90
40253;DHT22;25972;51.854;4.534;2023-04-25T04:36:45;6.30;99.90
40253;DHT22;25972;51.854;4.534;2023-04-25T04:39:14;6.30;99.90
40253;DHT22;25972;51.854;4.534;2023-04-25T04:41:58;6.30;99.90
40253;DHT22;25972;51.854;4.534;2023-04-25T04:44:47;6.30;99.90
40253;DHT22;25972;51.854;4.534;2023-04-25T04:47:25;6.30;99.90
40253;DHT22;25972;51.854;4.534;2023-04-25T04:50:16;6.30;99.90
40253;DHT22;25972;51.854;4.534;2023-04-25T04:53:05;6.30;99.90
40253;DHT22;25972;51.854;4.534;2023-04-25T04:55:55;6.30;99.90
40253;DHT22;25972;51.854;4.534;2023-04-25T04:58:39;6.40;99.90
40253;DHT22;25972;51.854;4.534;2023-04-25T05:01:18;6.40;99.90
40253;DHT22;25972;51.854;4.534;2023-04-25T05:03:56;6.40;99.90
40253;DHT22;25972;51.854;4.534;2023-04-25T05:06:46;6.40;99.90
40253;DHT22;25972;51.854;4.534;2023-04-25T05:09:14;6.40;99.90
40253;DHT22;25972;51.854;4.534;2023-04-25T05:11:59;6.40;99.90
40253;DHT22;25972;51.854;4.534;2023-04-25T05:14:49;6.50;99.90
40253;DHT22;25972;51.854;4.534;2023-04-25T05:17:48;6.50;99.90
40253;DHT22;25972;51.854;4.534;2023-04-25T05:20:22;6.50;99.90
40253;DHT22;25972;51.854;4.534;2023-04-25T05:23:14;6.60;99.90
40253;DHT22;25972;51.854;4.534;2023-04-25T05:25:40;6.60;99.90
40253;DHT22;25972;51.854;4.534;2023-04-25T05:28:25;6.60;99.90
40253;DHT22;25972;51.854;4.534;2023-04-25T05:31:17;6.60;99.90
40253;DHT22;25972;51.854;4.534;2023-04-25T05:33:59;6.60;99.90
40253;DHT22;25972;51.854;4.534;2023-04-25T05:36:34;6.60;99.90
40253;DHT22;25972;51.854;4.534;2023-04-25T05:39:00;6.60;99.90
40253;DHT22;25972;51.854;4.534;2023-04-25T05:41:45;6.60;99.90
40253;DHT22;25972;51.854;4.534;2023-04-25T05:44:44;6.70;99.90
40253;DHT22;25972;51.854;4.534;2023-04-25T05:47:25;6.70;99.90
40253;DHT22;25972;51.854;4.534;2023-04-25T05:50:04;6.90;99.90
40253;DHT22;25972;51.854;4.534;2023-04-25T05:52:50;7.60;99.90
40253;DHT22;25972;51.854;4.534;2023-04-25T05:55:23;9.00;99.90
40253;DHT22;25972;51.854;4.534;2023-04-25T06:01:44;11.20;99.90
40253;DHT22;25972;51.854;4.534;2023-04-25T06:04:11;12.10;99.90
40253;DHT22;25972;51.854;4.534;2023-04-25T06:06:37;12.20;99.90
40253;DHT22;25972;51.854;4.534;2023-04-25T06:09:03;12.10;99.90
40253;DHT22;25972;51.854;4.534;2023-04-25T06:11:30;11.80;99.90
40253;DHT22;25972;51.854;4.534;2023-04-25T06:13:56;11.40;99.90
40253;DHT22;25972;51.854;4.534;2023-04-25T06:16:22;11.10;99.90
40253;DHT22;25972;51.854;4.534;2023-04-25T06:18:50;10.80;99.90
40253;DHT22;25972;51.854;4.534;2023-04-25T06:21:16;10.30;99.90
40253;DHT22;25972;51.854;4.534;2023-04-25T06:23:41;10.10;99.90
40253;DHT22;25972;51.854;4.534;2023-04-25T06:26:10;9.90;99.90
40253;DHT22;25972;51.854;4.534;2023-04-25T06:28:38;9.60;99.90
40253;DHT22;25972;51.854;4.534;2023-04-25T06:31:04;9.70;99.90
40253;DHT22;25972;51.854;4.534;2023-04-25T06:33:30;9.60;99.90
40253;DHT22;25972;51.854;4.534;2023-04-25T06:35:56;9.60;99.90
40253;DHT22;25972;51.854;4.534;2023-04-25T06:38:26;9.60;99.90
40253;DHT22;25972;51.854;4.534;2023-04-25T06:40:53;9.60;99.90
40253;DHT22;25972;51.854;4.534;2023-04-25T06:43:19;9.50;99.90
40253;DHT22;25972;51.854;4.534;2023-04-25T06:46:08;9.40;99.90
40253;DHT22;25972;51.854;4.534;2023-04-25T06:48:40;9.20;99.90
40253;DHT22;25972;51.854;4.534;2023-04-25T06:51:06;9.10;99.90
40253;DHT22;25972;51.854;4.534;2023-04-25T06:53:34;9.00;99.90
40253;DHT22;25972;51.854;4.534;2023-04-25T06:56:02;9.00;99.90
40253;DHT22;25972;51.854;4.534;2023-04-25T06:58:54;8.90;99.90
40253;DHT22;25972;51.854;4.534;2023-04-25T07:01:28;8.80;99.90
40253;DHT22;25972;51.854;4.534;2023-04-25T07:03:54;8.90;99.90
40253;DHT22;25972;51.854;4.534;2023-04-25T07:06:21;8.90;99.90
40253;DHT22;25972;51.854;4.534;2023-04-25T07:08:47;8.90;99.90
40253;DHT22;25972;51.854;4.534;2023-04-25T07:11:13;9.00;99.90
40253;DHT22;25972;51.854;4.534;2023-04-25T07:13:40;9.10;99.90
40253;DHT22;25972;51.854;4.534;2023-04-25T07:16:06;9.30;99.90
40253;DHT22;25972;51.854;4.534;2023-04-25T07:18:33;9.40;99.90
40253;DHT22;25972;51.854;4.534;2023-04-25T07:21:00;9.60;99.90
40253;DHT22;25972;51.854;4.534;2023-04-25T07:23:26;9.80;99.90
40253;DHT22;25972;51.854;4.534;2023-04-25T07:25:52;9.90;99.90
40253;DHT22;25972;51.854;4.534;2023-04-25T07:28:21;10.00;99.90
40253;DHT22;25972;51.854;4.534;2023-04-25T07:30:47;10.00;99.90
40253;DHT22;25972;51.854;4.534;2023-04-25T07:33:13;10.10;99.90
40253;DHT22;25972;51.854;4.534;2023-04-25T07:35:39;10.00;99.90
40253;DHT22;25972;51.854;4.534;2023-04-25T07:38:05;10.20;99.90
40253;DHT22;25972;51.854;4.534;2023-04-25T07:40:32;10.30;99.90
40253;DHT22;25972;51.854;4.534;2023-04-25T07:43:04;10.40;99.90
40253;DHT22;25972;51.854;4.534;2023-04-25T07:45:40;10.70;99.90
40253;DHT22;25972;51.854;4.534;2023-04-25T07:48:08;10.70;99.90
40253;DHT22;25972;51.854;4.534;2023-04-25T07:50:36;11.10;99.90
40253;DHT22;25972;51.854;4.534;2023-04-25T07:53:02;11.30;99.90
40253;DHT22;25972;51.854;4.534;2023-04-25T07:55:37;11.60;99.90
40253;DHT22;25972;51.854;4.534;2023-04-25T07:58:14;11.90;97.90
40253;DHT22;25972;51.854;4.534;2023-04-25T08:00:43;12.00;97.30
40253;DHT22;25972;51.854;4.534;2023-04-25T08:03:25;11.80;93.20
40253;DHT22;25972;51.854;4.534;2023-04-25T08:05:52;12.10;90.40
40253;DHT22;25972;51.854;4.534;2023-04-25T08:08:18;12.40;91.00
40253;DHT22;25972;51.854;4.534;2023-04-25T08:10:44;12.60;88.40
40253;DHT22;25972;51.854;4.534;2023-04-25T08:13:11;12.30;76.30
40253;DHT22;25972;51.854;4.534;2023-04-25T08:15:37;12.30;76.30
40253;DHT22;25972;51.854;4.534;2023-04-25T08:18:03;12.20;74.30
40253;DHT22;25972;51.854;4.534;2023-04-25T08:20:29;12.00;75.80
40253;DHT22;25972;51.854;4.534;2023-04-25T08:22:57;12.20;71.70
40253;DHT22;25972;51.854;4.534;2023-04-25T08:25:36;12.60;74.30
40253;DHT22;25972;51.854;4.534;2023-04-25T08:28:03;12.40;70.20
40253;DHT22;25972;51.854;4.534;2023-04-25T08:30:29;12.10;65.40
40253;DHT22;25972;51.854;4.534;2023-04-25T08:32:55;11.90;64.60
40253;DHT22;25972;51.854;4.534;2023-04-25T08:35:46;11.60;65.20
40253;DHT22;25972;51.854;4.534;2023-04-25T08:38:13;11.20;67.30
40253;DHT22;25972;51.854;4.534;2023-04-25T08:40:40;10.90;66.90
40253;DHT22;25972;51.854;4.534;2023-04-25T08:43:13;10.80;69.90
40253;DHT22;25972;51.854;4.534;2023-04-25T08:45:41;10.60;66.30
40253;DHT22;25972;51.854;4.534;2023-04-25T08:48:12;10.50;65.30
40253;DHT22;25972;51.854;4.534;2023-04-25T08:50:40;10.50;66.50
40253;DHT22;25972;51.854;4.534;2023-04-25T08:53:09;10.30;65.70
40253;DHT22;25972;51.854;4.534;2023-04-25T08:55:37;10.20;62.60
40253;DHT22;25972;51.854;4.534;2023-04-25T08:58:09;10.30;62.80
40253;DHT22;25972;51.854;4.534;2023-04-25T09:00:36;10.50;61.30
40253;DHT22;25972;51.854;4.534;2023-04-25T09:03:02;10.70;61.80
40253;DHT22;25972;51.854;4.534;2023-04-25T09:05:34;10.80;59.80
40253;DHT22;25972;51.854;4.534;2023-04-25T09:08:01;10.90;59.20
40253;DHT22;25972;51.854;4.534;2023-04-25T09:10:28;11.00;59.40
40253;DHT22;25972;51.854;4.534;2023-04-25T09:13:13;11.00;58.80
40253;DHT22;25972;51.854;4.534;2023-04-25T09:15:59;10.90;55.20
40253;DHT22;25972;51.854;4.534;2023-04-25T09:18:50;10.90;58.00
40253;DHT22;25972;51.854;4.534;2023-04-25T09:21:22;10.80;56.80
40253;DHT22;25972;51.854;4.534;2023-04-25T09:23:50;10.80;58.10
40253;DHT22;25972;51.854;4.534;2023-04-25T09:26:19;10.80;58.60
40253;DHT22;25972;51.854;4.534;2023-04-25T09:28:47;10.80;58.20
40253;DHT22;25972;51.854;4.534;2023-04-25T09:31:22;11.00;58.00
40253;DHT22;25972;51.854;4.534;2023-04-25T09:33:59;11.10;55.30
40253;DHT22;25972;51.854;4.534;2023-04-25T09:36:26;11.00;52.70
40253;DHT22;25972;51.854;4.534;2023-04-25T09:39:01;10.80;52.80
40253;DHT22;25972;51.854;4.534;2023-04-25T09:41:37;10.80;51.10
40253;DHT22;25972;51.854;4.534;2023-04-25T09:44:03;11.10;53.00
40253;DHT22;25972;51.854;4.534;2023-04-25T09:46:35;11.50;51.40
40253;DHT22;25972;51.854;4.534;2023-04-25T09:49:06;11.90;51.20
40253;DHT22;25972;51.854;4.534;2023-04-25T09:51:41;12.40;49.40
40253;DHT22;25972;51.854;4.534;2023-04-25T09:54:09;12.50;46.40
40253;DHT22;25972;51.854;4.534;2023-04-25T09:56:42;12.60;46.10
40253;DHT22;25972;51.854;4.534;2023-04-25T09:59:09;12.80;45.10
40253;DHT22;25972;51.854;4.534;2023-04-25T10:01:40;13.20;46.10
40253;DHT22;25972;51.854;4.534;2023-04-25T10:04:19;13.50;43.10
40253;DHT22;25972;51.854;4.534;2023-04-25T10:06:53;13.50;43.30
40253;DHT22;25972;51.854;4.534;2023-04-25T10:09:20;13.60;40.50
40253;DHT22;25972;51.854;4.534;2023-04-25T10:11:47;13.70;42.90
40253;DHT22;25972;51.854;4.534;2023-04-25T10:14:17;13.70;43.60
40253;DHT22;25972;51.854;4.534;2023-04-25T10:16:44;13.70;42.60
40253;DHT22;25972;51.854;4.534;2023-04-25T10:19:10;13.50;40.20
40253;DHT22;25972;51.854;4.534;2023-04-25T10:21:44;13.00;37.30
40253;DHT22;25972;51.854;4.534;2023-04-25T10:24:12;12.70;36.70
40253;DHT22;25972;51.854;4.534;2023-04-25T10:26:38;12.60;41.00
40253;DHT22;25972;51.854;4.534;2023-04-25T10:29:04;13.00;41.90
40253;DHT22;25972;51.854;4.534;2023-04-25T10:31:31;13.30;39.70
40253;DHT22;25972;51.854;4.534;2023-04-25T10:33:57;13.40;41.20
40253;DHT22;25972;51.854;4.534;2023-04-25T10:36:24;13.40;40.70
40253;DHT22;25972;51.854;4.534;2023-04-25T10:38:52;13.20;39.20
40253;DHT22;25972;51.854;4.534;2023-04-25T10:41:20;12.90;39.40
40253;DHT22;25972;51.854;4.534;2023-04-25T10:43:47;12.60;35.70
40253;DHT22;25972;51.854;4.534;2023-04-25T10:46:18;12.50;39.90
40253;DHT22;25972;51.854;4.534;2023-04-25T10:51:23;12.40;41.70
40253;DHT22;25972;51.854;4.534;2023-04-25T10:56:32;12.80;40.00
40253;DHT22;25972;51.854;4.534;2023-04-25T10:59:08;13.20;38.70
40253;DHT22;25972;51.854;4.534;2023-04-25T11:01:46;13.70;39.10
40253;DHT22;25972;51.854;4.534;2023-04-25T11:09:24;13.60;40.50
40253;DHT22;25972;51.854;4.534;2023-04-25T11:11:57;13.00;38.60
40253;DHT22;25972;51.854;4.534;2023-04-25T11:14:24;12.70;38.70
40253;DHT22;25972;51.854;4.534;2023-04-25T11:16:54;12.50;39.70
40253;DHT22;25972;51.854;4.534;2023-04-25T11:19:21;12.60;40.70
40253;DHT22;25972;51.854;4.534;2023-04-25T11:21:47;12.80;42.20
40253;DHT22;25972;51.854;4.534;2023-04-25T11:24:13;12.80;41.00
40253;DHT22;25972;51.854;4.534;2023-04-25T11:26:41;12.70;41.20
40253;DHT22;25972;51.854;4.534;2023-04-25T11:29:09;12.60;40.70
40253;DHT22;25972;51.854;4.534;2023-04-25T11:31:35;12.50;38.70
40253;DHT22;25972;51.854;4.534;2023-04-25T11:34:01;12.40;39.60
40253;DHT22;25972;51.854;4.534;2023-04-25T11:36:27;12.50;38.90
40253;DHT22;25972;51.854;4.534;2023-04-25T11:38:53;12.70;40.40
40253;DHT22;25972;51.854;4.534;2023-04-25T11:41:20;12.60;36.40
40253;DHT22;25972;51.854;4.534;2023-04-25T11:43:48;12.50;36.90
40253;DHT22;25972;51.854;4.534;2023-04-25T11:46:15;12.60;38.20
40253;DHT22;25972;51.854;4.534;2023-04-25T11:48:42;12.60;39.00
40253;DHT22;25972;51.854;4.534;2023-04-25T11:51:08;12.60;37.90
40253;DHT22;25972;51.854;4.534;2023-04-25T11:53:34;12.60;38.80
40253;DHT22;25972;51.854;4.534;2023-04-25T11:56:01;12.50;38.10
40253;DHT22;25972;51.854;4.534;2023-04-25T11:58:27;12.40;36.90
40253;DHT22;25972;51.854;4.534;2023-04-25T12:00:53;12.50;37.50
40253;DHT22;25972;51.854;4.534;2023-04-25T12:03:19;12.50;37.50
40253;DHT22;25972;51.854;4.534;2023-04-25T12:05:46;12.60;36.90
40253;DHT22;25972;51.854;4.534;2023-04-25T12:08:13;12.70;36.30
40253;DHT22;25972;51.854;4.534;2023-04-25T12:10:41;12.80;36.40
40253;DHT22;25972;51.854;4.534;2023-04-25T12:13:20;13.10;33.70
40253;DHT22;25972;51.854;4.534;2023-04-25T12:15:46;13.40;33.90
40253;DHT22;25972;51.854;4.534;2023-04-25T12:18:12;13.70;35.90
40253;DHT22;25972;51.854;4.534;2023-04-25T12:20:38;13.80;34.60
40253;DHT22;25972;51.854;4.534;2023-04-25T12:23:07;13.90;33.40
40253;DHT22;25972;51.854;4.534;2023-04-25T12:25:40;13.70;32.70
40253;DHT22;25972;51.854;4.534;2023-04-25T12:28:20;13.40;31.80
40253;DHT22;25972;51.854;4.534;2023-04-25T12:31:01;13.60;32.70
40253;DHT22;25972;51.854;4.534;2023-04-25T12:33:29;13.70;31.80
40253;DHT22;25972;51.854;4.534;2023-04-25T12:35:55;13.80;30.50
40253;DHT22;25972;51.854;4.534;2023-04-25T12:38:22;14.10;32.30
40253;DHT22;25972;51.854;4.534;2023-04-25T12:40:48;14.30;32.80
40253;DHT22;25972;51.854;4.534;2023-04-25T12:43:14;14.10;31.40
40253;DHT22;25972;51.854;4.534;2023-04-25T12:45:40;14.00;32.30
40253;DHT22;25972;51.854;4.534;2023-04-25T12:48:06;14.00;33.30
40253;DHT22;25972;51.854;4.534;2023-04-25T12:50:32;13.90;33.20
40253;DHT22;25972;51.854;4.534;2023-04-25T12:52:58;13.90;33.30
40253;DHT22;25972;51.854;4.534;2023-04-25T12:55:23;13.70;31.70
40253;DHT22;25972;51.854;4.534;2023-04-25T12:57:49;13.50;31.80
40253;DHT22;25972;51.854;4.534;2023-04-25T13:00:15;13.30;33.60
40253;DHT22;25972;51.854;4.534;2023-04-25T13:02:43;13.20;32.50
40253;DHT22;25972;51.854;4.534;2023-04-25T13:05:09;12.90;33.60
40253;DHT22;25972;51.854;4.534;2023-04-25T13:07:35;13.00;35.00
40253;DHT22;25972;51.854;4.534;2023-04-25T13:10:01;12.70;33.90
40253;DHT22;25972;51.854;4.534;2023-04-25T13:12:28;12.70;33.50
40253;DHT22;25972;51.854;4.534;2023-04-25T13:14:54;12.70;34.30
40253;DHT22;25972;51.854;4.534;2023-04-25T13:17:19;12.60;33.60
40253;DHT22;25972;51.854;4.534;2023-04-25T13:19:45;12.40;33.50
40253;DHT22;25972;51.854;4.534;2023-04-25T13:22:11;12.30;32.90
40253;DHT22;25972;51.854;4.534;2023-04-25T13:24:37;12.20;33.20
40253;DHT22;25972;51.854;4.534;2023-04-25T13:27:03;12.20;33.90
40253;DHT22;25972;51.854;4.534;2023-04-25T13:29:29;12.20;33.90
40253;DHT22;25972;51.854;4.534;2023-04-25T13:31:55;12.20;34.30
40253;DHT22;25972;51.854;4.534;2023-04-25T13:34:21;12.10;33.50
40253;DHT22;25972;51.854;4.534;2023-04-25T13:36:46;12.10;34.00
40253;DHT22;25972;51.854;4.534;2023-04-25T13:39:12;12.00;33.60
40253;DHT22;25972;51.854;4.534;2023-04-25T13:41:38;12.00;34.30
40253;DHT22;25972;51.854;4.534;2023-04-25T13:44:04;12.00;34.40
40253;DHT22;25972;51.854;4.534;2023-04-25T13:46:30;12.00;33.60
40253;DHT22;25972;51.854;4.534;2023-04-25T13:48:55;12.00;32.10
40253;DHT22;25972;51.854;4.534;2023-04-25T13:51:22;12.00;32.60
40253;DHT22;25972;51.854;4.534;2023-04-25T13:53:48;11.90;33.10
40253;DHT22;25972;51.854;4.534;2023-04-25T13:56:14;11.90;33.80
40253;DHT22;25972;51.854;4.534;2023-04-25T13:58:40;11.80;33.80
40253;DHT22;25972;51.854;4.534;2023-04-25T14:01:06;11.80;34.70
40253;DHT22;25972;51.854;4.534;2023-04-25T14:03:31;11.90;34.30
40253;DHT22;25972;51.854;4.534;2023-04-25T14:05:57;12.10;34.10
40253;DHT22;25972;51.854;4.534;2023-04-25T14:08:23;12.40;34.20
40253;DHT22;25972;51.854;4.534;2023-04-25T14:10:49;12.70;33.00
40253;DHT22;25972;51.854;4.534;2023-04-25T14:13:14;12.80;33.10
40253;DHT22;25972;51.854;4.534;2023-04-25T14:15:40;13.00;34.50
40253;DHT22;25972;51.854;4.534;2023-04-25T14:18:06;13.20;34.40
40253;DHT22;25972;51.854;4.534;2023-04-25T14:20:32;13.30;34.20
40253;DHT22;25972;51.854;4.534;2023-04-25T14:22:58;13.20;34.10
40253;DHT22;25972;51.854;4.534;2023-04-25T14:25:24;13.10;34.00
40253;DHT22;25972;51.854;4.534;2023-04-25T14:27:51;13.10;33.30
40253;DHT22;25972;51.854;4.534;2023-04-25T14:30:18;12.90;32.10
40253;DHT22;25972;51.854;4.534;2023-04-25T14:32:45;12.70;30.50
40253;DHT22;25972;51.854;4.534;2023-04-25T14:35:11;12.70;30.90
40253;DHT22;25972;51.854;4.534;2023-04-25T14:37:37;12.50;32.50
40253;DHT22;25972;51.854;4.534;2023-04-25T14:40:03;12.50;33.40
40253;DHT22;25972;51.854;4.534;2023-04-25T14:42:30;12.40;32.50
40253;DHT22;25972;51.854;4.534;2023-04-25T14:44:56;12.30;30.20
40253;DHT22;25972;51.854;4.534;2023-04-25T14:47:22;12.20;31.90
40253;DHT22;25972;51.854;4.534;2023-04-25T14:49:49;12.20;32.80
40253;DHT22;25972;51.854;4.534;2023-04-25T14:52:20;12.20;31.20
40253;DHT22;25972;51.854;4.534;2023-04-25T14:54:46;12.10;30.00
40253;DHT22;25972;51.854;4.534;2023-04-25T14:57:13;12.00;31.40
40253;DHT22;25972;51.854;4.534;2023-04-25T14:59:38;11.90;31.20
40253;DHT22;25972;51.854;4.534;2023-04-25T15:02:05;11.80;31.20
40253;DHT22;25972;51.854;4.534;2023-04-25T15:04:31;11.70;31.10
40253;DHT22;25972;51.854;4.534;2023-04-25T15:06:57;11.70;32.00
40253;DHT22;25972;51.854;4.534;2023-04-25T15:09:23;11.60;32.40
40253;DHT22;25972;51.854;4.534;2023-04-25T15:11:50;11.70;32.70
40253;DHT22;25972;51.854;4.534;2023-04-25T15:14:17;11.80;33.00
40253;DHT22;25972;51.854;4.534;2023-04-25T15:16:43;11.90;32.90
40253;DHT22;25972;51.854;4.534;2023-04-25T15:19:09;12.00;33.10
40253;DHT22;25972;51.854;4.534;2023-04-25T15:21:35;11.90;31.60
40253;DHT22;25972;51.854;4.534;2023-04-25T15:24:01;11.90;31.90
40253;DHT22;25972;51.854;4.534;2023-04-25T15:26:27;11.80;32.00
40253;DHT22;25972;51.854;4.534;2023-04-25T15:28:53;11.80;32.10
40253;DHT22;25972;51.854;4.534;2023-04-25T15:31:19;11.70;31.60
40253;DHT22;25972;51.854;4.534;2023-04-25T15:33:45;11.60;32.50
40253;DHT22;25972;51.854;4.534;2023-04-25T15:36:11;11.40;33.70
40253;DHT22;25972;51.854;4.534;2023-04-25T15:38:37;11.30;34.40
40253;DHT22;25972;51.854;4.534;2023-04-25T15:41:03;11.20;35.10
40253;DHT22;25972;51.854;4.534;2023-04-25T15:43:30;11.10;35.50
40253;DHT22;25972;51.854;4.534;2023-04-25T15:45:56;11.00;35.90
40253;DHT22;25972;51.854;4.534;2023-04-25T15:48:21;11.00;35.70
40253;DHT22;25972;51.854;4.534;2023-04-25T15:50:47;11.00;36.20
40253;DHT22;25972;51.854;4.534;2023-04-25T15:53:13;11.00;36.50
40253;DHT22;25972;51.854;4.534;2023-04-25T15:55:39;11.20;36.70
40253;DHT22;25972;51.854;4.534;2023-04-25T15:58:05;11.30;36.20
40253;DHT22;25972;51.854;4.534;2023-04-25T16:00:31;11.40;35.80
40253;DHT22;25972;51.854;4.534;2023-04-25T16:03:01;11.40;36.80
40253;DHT22;25972;51.854;4.534;2023-04-25T16:05:27;11.20;36.80